Time;durP1;ratioP1;P1;durP2;ratioP2;P2;SDS_P1;SDS_P2;PMS_P1;PMS_P2;Temp;Humidity;BMP_temperature;BMP_pressure;BME280_temperature;BME280_humidity;BME280_pressure;Samples;Min_cycle;Max_cycle;Signal;HPM_P1;HPM_P2
2021/11/14 00:00:57;;;;;;;90.30;55.65;;;;;;;4.99;99.19;99992.92;1760657;79;20856;-69
2021/11/14 00:03:25;;;;;;;83.67;52.55;;;;;;;5.00;99.19;99992.03;1773490;78;20871;-69
2021/11/14 00:05:53;;;;;;;;;;;;;;;5.01;99.18;99991.13;1761017;80;20888;-68
2021/11/14 00:08:20;;;;;;;86.25;50.73;;;;;;;5.00;99.17;99990.73;1753027;80;21086;-68
2021/11/14 00:10:50;;;;;;;;;;;;;;;4.98;99.14;99992.94;1756159;80;20946;-68
2021/11/14 00:13:17;;;;;;;82.22;50.73;;;;;;;4.96;99.17;99997.28;1754768;80;20197;-68
2021/11/14 00:15:49;;;;;;;90.05;51.73;;;;;;;4.95;99.19;99995.14;1754920;80;20938;-68
2021/11/14 00:18:16;;;;;;;83.17;53.55;;;;;;;4.94;99.17;99990.86;1754037;80;20955;-68
2021/11/14 00:20:45;;;;;;;92.55;52.88;;;;;;;4.93;99.20;99996.94;1751837;80;21078;-69
2021/11/14 00:23:14;;;;;;;86.50;52.38;;;;;;;4.93;99.21;99994.34;1751254;80;20947;-68
2021/11/14 00:25:41;;;;;;;91.75;55.98;;;;;;;4.93;99.21;100004.70;1754337;80;21501;-69
2021/11/14 00:28:17;;;;;;;93.00;53.80;;;;;;;4.96;99.27;100008.52;1753032;80;20982;-68
2021/11/14 00:30:39;;;;;;;80.35;51.65;;;;;;;4.96;99.20;100016.28;1754587;80;21491;-68
2021/11/14 00:33:06;;;;;;;89.72;54.65;;;;;;;4.97;99.16;100023.15;1756495;80;21090;-67
2021/11/14 00:35:34;;;;;;;89.15;53.48;;;;;;;4.97;99.16;100030.91;1755762;80;20880;-68
2021/11/14 00:38:01;;;;;;;80.65;50.92;;;;;;;4.97;99.16;100033.50;1743379;80;21533;-69
2021/11/14 00:40:31;;;;;;;81.53;51.63;;;;;;;4.98;99.16;100032.61;1752275;80;20864;-68
2021/11/14 00:43:00;;;;;;;82.60;48.58;;;;;;;4.98;99.13;100035.64;1714546;82;20905;-68
2021/11/14 00:45:29;;;;;;;78.30;50.45;;;;;;;4.97;99.12;100030.91;1750553;80;21040;-69
2021/11/14 00:47:57;;;;;;;78.85;48.68;;;;;;;4.97;99.08;100025.73;1704941;82;21740;-68
2021/11/14 00:50:27;;;;;;;88.30;53.95;;;;;;;4.96;99.10;100034.39;1693499;81;21392;-68
2021/11/14 00:52:54;;;;;;;79.70;50.83;;;;;;;4.96;99.09;100031.80;1748838;80;21631;-68
2021/11/14 00:55:21;;;;;;;87.15;52.08;;;;;;;4.97;99.13;100031.36;1712338;82;20905;-68
2021/11/14 00:57:48;;;;;;;;;;;;;;;4.97;99.11;100036.09;1719493;81;21138;-68
2021/11/14 01:00:22;;;;;;;81.45;49.08;;;;;;;4.97;99.07;100041.71;1745015;80;20141;-69
2021/11/14 01:02:49;;;;;;;91.87;51.68;;;;;;;4.94;99.06;100041.33;1736903;81;21092;-68
2021/11/14 01:05:18;;;;;;;83.62;52.13;;;;;;;4.97;99.11;100046.44;1742988;81;20894;-68
2021/11/14 01:07:46;;;;;;;83.35;51.30;;;;;;;4.98;99.11;100045.55;1759817;79;20976;-68
2021/11/14 01:10:17;;;;;;;85.15;52.30;;;;;;;5.00;99.14;100045.08;1767708;79;21951;-67
2021/11/14 01:12:45;;;;;;;80.00;51.40;;;;;;;5.01;99.14;100045.48;1738432;79;21012;-68
2021/11/14 01:15:15;;;;;;;78.40;50.75;;;;;;;5.03;99.11;100042.43;1756642;80;20961;-68
2021/11/14 01:17:42;;;;;;;77.75;49.48;;;;;;;5.05;99.09;100047.14;1735358;81;20989;-70
2021/11/14 01:20:14;;;;;;;80.67;48.92;;;;;;;5.07;99.08;100044.09;1778949;80;20911;-69
2021/11/14 01:22:41;;;;;;;81.95;51.95;;;;;;;5.08;99.09;100048.38;1776271;78;21726;-69
2021/11/14 01:25:11;;;;;;;85.35;51.83;;;;;;;5.11;99.07;100053.94;1736712;81;20894;-69
2021/11/14 01:27:38;;;;;;;78.10;50.30;;;;;;;5.12;99.01;100058.22;1776726;78;20941;-69
2021/11/14 01:30:12;;;;;;;86.35;51.48;;;;;;;5.14;99.01;100061.19;1771812;79;21583;-68
2021/11/14 01:32:45;;;;;;;79.20;51.23;;;;;;;5.15;99.03;100061.63;1772534;79;21622;-68
2021/11/14 01:35:12;;;;;;;78.92;49.20;;;;;;;5.16;99.02;100062.02;1771604;79;20933;-68
2021/11/14 01:37:42;;;;;;;77.40;51.73;;;;;;;5.16;98.91;100057.30;1731813;81;20997;-68
2021/11/14 01:40:14;;;;;;;82.00;49.93;;;;;;;5.14;98.87;100056.02;1739193;81;20927;-68
2021/11/14 01:42:41;;;;;;;79.77;48.78;;;;;;;5.16;98.92;100060.73;1767127;79;20986;-69
2021/11/14 01:45:09;;;;;;;77.27;50.80;;;;;;;5.15;98.83;100065.51;1726239;81;21041;-68
2021/11/14 01:47:37;;;;;;;84.28;51.73;;;;;;;5.14;98.84;100075.43;1774922;80;21495;-68
2021/11/14 01:50:07;;;;;;;73.90;49.03;;;;;;;5.13;98.81;100076.33;1745228;81;21167;-68
2021/11/14 01:52:34;;;;;;;73.78;49.30;;;;;;;5.13;98.85;100079.36;1770486;78;21485;-68
2021/11/14 01:55:02;;;;;;;74.15;48.78;;;;;;;5.13;98.91;100078.91;1772236;79;20938;-68
2021/11/14 01:57:29;;;;;;;76.05;48.63;;;;;;;5.15;98.91;100081.45;1726065;81;21633;-68
2021/11/14 01:59:57;;;;;;;72.47;49.50;;;;;;;5.15;98.87;100093.98;1775323;79;21818;-68
2021/11/14 02:02:24;;;;;;;73.10;47.73;;;;;;;5.14;98.85;100093.55;1756206;79;20997;-68
2021/11/14 02:04:53;;;;;;;82.40;48.30;;;;;;;5.15;98.89;100092.69;1758966;79;24322;-68
2021/11/14 02:07:20;;;;;;;66.87;46.68;;;;;;;5.14;98.85;100088.37;1742104;81;21440;-68
2021/11/14 02:09:59;;;;;;;68.90;47.50;;;;;;;5.15;98.84;100093.98;1764006;79;20945;-68
2021/11/14 02:12:31;;;;;;;72.42;46.50;;;;;;;5.16;98.81;100099.56;1776801;79;20965;-68
2021/11/14 02:14:58;;;;;;;70.35;46.95;;;;;;;5.14;98.76;100098.73;1732777;81;21297;-68
2021/11/14 02:17:25;;;;;;;77.78;48.13;;;;;;;5.12;98.69;100099.64;1770714;80;21771;-68
2021/11/14 02:19:53;;;;;;;72.17;46.80;;;;;;;5.09;98.65;100096.66;1755487;80;21453;-68
2021/11/14 02:22:21;;;;;;;66.33;43.63;;;;;;;5.05;98.64;100095.03;1776131;79;20997;-68
2021/11/14 02:24:48;;;;;;;67.37;44.48;;;;;;;5.03;98.65;100103.25;1777563;78;21907;-68
2021/11/14 02:27:15;;;;;;;66.07;46.35;;;;;;;5.03;98.70;100095.48;1772430;78;28000;-68
2021/11/14 02:29:42;;;;;;;72.65;47.03;;;;;;;5.03;98.71;100098.08;1770863;78;21493;-68
2021/11/14 02:32:09;;;;;;;71.10;46.85;;;;;;;5.05;98.77;100096.32;1775611;80;20939;-68
2021/11/14 02:34:36;;;;;;;70.92;46.40;;;;;;;5.07;98.80;100102.33;1768985;78;20899;-68
2021/11/14 02:37:03;;;;;;;71.50;45.33;;;;;;;5.08;98.77;100106.61;1779249;78;21177;-68
2021/11/14 02:39:30;;;;;;;70.47;46.90;;;;;;;5.09;98.75;100107.02;1777752;78;21995;-68
2021/11/14 02:41:57;;;;;;;68.63;45.63;;;;;;;5.10;98.74;100111.33;1775002;78;20933;-68
2021/11/14 02:44:24;;;;;;;68.28;46.37;;;;;;;5.11;98.70;100113.47;1774167;78;21453;-68
2021/11/14 02:46:51;;;;;;;67.47;45.73;;;;;;;5.12;98.73;100113.42;1772472;80;20954;-68
2021/11/14 02:49:17;;;;;;;76.80;47.13;;;;;;;5.14;98.79;100113.41;1773311;80;21067;-68
2021/11/14 02:51:44;;;;;;;72.67;48.15;;;;;;;5.14;98.73;100112.97;1775199;80;21057;-68
2021/11/14 02:54:11;;;;;;;69.03;46.20;;;;;;;5.15;98.71;100114.69;1768656;80;20923;-68
2021/11/14 02:56:38;;;;;;;63.07;44.40;;;;;;;5.15;98.67;100121.16;1774739;78;21635;-68
2021/11/14 02:59:05;;;;;;;72.32;47.60;;;;;;;5.14;98.62;100119.88;1771153;80;20910;-68
2021/11/14 03:01:43;;;;;;;68.30;44.08;;;;;;;5.13;98.57;100122.92;1776015;78;21035;-68
2021/11/14 03:04:19;;;;;;;64.60;42.67;;;;;;;5.16;98.67;100128.03;1771663;79;20931;-68
2021/11/14 03:06:48;;;;;;;63.08;45.67;;;;;;;5.19;98.72;100128.87;1768087;80;21496;-67
2021/11/14 03:09:16;;;;;;;66.53;44.73;;;;;;;5.20;98.63;100127.97;1773223;80;20930;-68
2021/11/14 03:11:42;;;;;;;65.15;45.38;;;;;;;5.19;98.56;100132.30;1770286;80;20887;-67
2021/11/14 03:14:09;;;;;;;65.30;46.10;;;;;;;5.20;98.53;100134.45;1772991;78;21092;-68
2021/11/14 03:16:36;;;;;;;65.80;45.20;;;;;;;5.19;98.51;100133.59;1772240;80;21446;-68
2021/11/14 03:19:04;;;;;;;62.58;43.13;;;;;;;5.23;98.61;100139.56;1758421;80;20929;-68
2021/11/14 03:21:32;;;;;;;68.33;42.88;;;;;;;5.26;98.68;100140.80;1767296;78;20935;-69
2021/11/14 03:23:59;;;;;;;67.95;45.55;;;;;;;5.28;98.69;100142.48;1771851;78;26634;-68
2021/11/14 03:26:26;;;;;;;63.53;43.00;;;;;;;5.32;98.68;100139.38;1776157;78;21869;-68
2021/11/14 03:28:53;;;;;;;68.90;44.38;;;;;;;5.32;98.48;100140.67;1770524;78;21634;-68
2021/11/14 03:31:20;;;;;;;66.10;45.83;;;;;;;5.32;98.42;100156.21;1775884;80;21759;-68
2021/11/14 03:33:47;;;;;;;68.02;44.45;;;;;;;5.32;98.44;100157.09;1773020;78;20898;-67
2021/11/14 03:36:17;;;;;;;64.75;43.90;;;;;;;5.32;98.42;100154.91;1768797;80;20899;-68
2021/11/14 03:38:51;;;;;;;64.50;43.42;;;;;;;5.33;98.40;100150.17;1774660;78;21754;-67
2021/11/14 03:41:26;;;;;;;69.50;46.13;;;;;;;5.33;98.35;100152.76;1770194;78;21981;-68
2021/11/14 03:43:54;;;;;;;70.37;45.80;;;;;;;5.32;98.34;100148.44;1770745;79;20946;-68
2021/11/14 03:46:21;;;;;;;63.23;43.02;;;;;;;5.31;98.33;100157.11;1773333;78;20907;-68
2021/11/14 03:48:51;;;;;;;62.23;43.25;;;;;;;5.30;98.26;100155.41;1768373;80;21543;-68
2021/11/14 03:51:19;;;;;;;71.55;44.70;;;;;;;5.31;98.30;100158.40;1775193;78;21035;-68
2021/11/14 03:53:46;;;;;;;69.27;45.78;;;;;;;5.32;98.44;100157.50;1775143;78;21404;-68
2021/11/14 03:56:15;;;;;;;67.72;43.78;;;;;;;5.31;98.20;100155.81;1773392;78;20949;-68
2021/11/14 03:58:42;;;;;;;63.35;42.62;;;;;;;5.28;98.09;100160.60;1777925;80;20898;-68
2021/11/14 04:01:13;;;;;;;65.62;40.30;;;;;;;5.28;98.02;100158.46;1777392;78;21090;-68
2021/11/14 04:03:44;;;;;;;66.77;43.10;;;;;;;5.26;98.10;100159.77;1769713;78;21852;-68
2021/11/14 04:06:12;;;;;;;66.28;43.87;;;;;;;5.27;98.11;100163.23;1765686;80;20954;-69
2021/11/14 04:08:39;;;;;;;65.97;43.90;;;;;;;5.24;98.00;100164.59;1773579;79;20960;-68
2021/11/14 04:11:06;;;;;;;61.68;42.78;;;;;;;5.24;98.07;100173.20;1770120;80;20934;-68
2021/11/14 04:13:34;;;;;;;74.25;45.40;;;;;;;5.26;98.13;100174.45;1769792;78;21504;-68
2021/11/14 04:16:05;;;;;;;69.22;42.95;;;;;;;5.26;98.09;100182.22;1768421;80;21751;-68
2021/11/14 04:18:32;;;;;;;65.65;42.08;;;;;;;5.26;98.03;100179.63;1770721;79;20987;-68
2021/11/14 04:20:59;;;;;;;70.20;44.03;;;;;;;5.24;97.99;100177.53;1768047;78;20970;-68
2021/11/14 04:23:26;;;;;;;69.40;41.65;;;;;;;5.23;97.97;100184.88;1756247;80;20970;-68
2021/11/14 04:25:53;;;;;;;67.20;43.77;;;;;;;5.24;98.05;100187.45;1776906;79;20910;-68
2021/11/14 04:28:21;;;;;;;62.55;42.67;;;;;;;5.26;98.10;100188.25;1769184;80;21071;-68
2021/11/14 04:30:48;;;;;;;;;;;;;;;5.26;98.00;100193.42;1773411;78;20957;-68
2021/11/14 04:33:16;;;;;;;;;;;;;;;5.26;97.97;100186.11;1777164;79;20500;-68
2021/11/14 04:35:43;;;;;;;;;;;;;;;5.26;97.93;100194.72;1754311;80;21073;-67
2021/11/14 04:38:10;;;;;;;62.90;44.53;;;;;;;5.26;98.02;100195.17;1769480;78;20104;-68
2021/11/14 04:40:40;;;;;;;68.60;43.58;;;;;;;5.27;98.05;100199.48;1728461;81;21062;-68
2021/11/14 04:43:09;;;;;;;66.07;43.78;;;;;;;5.26;97.90;100199.05;1769777;80;21467;-68
2021/11/14 04:45:37;;;;;;;62.65;43.55;;;;;;;5.26;97.91;100205.52;1767418;80;20898;-68
2021/11/14 04:48:06;;;;;;;66.47;45.48;;;;;;;5.25;97.86;100202.09;1770873;80;21588;-68
2021/11/14 04:50:33;;;;;;;67.62;43.35;;;;;;;5.23;97.72;100205.58;1768284;80;20870;-67
2021/11/14 04:53:01;;;;;;;69.77;43.65;;;;;;;5.20;97.73;100208.23;1772062;79;21202;-68
2021/11/14 04:55:28;;;;;;;67.75;44.77;;;;;;;5.21;97.81;100215.09;1709268;81;20962;-67
2021/11/14 04:57:54;;;;;;;72.17;45.40;;;;;;;5.19;97.67;100214.30;1762395;79;20964;-68
2021/11/14 05:00:26;;;;;;;68.40;45.45;;;;;;;5.18;97.73;100220.34;1745655;79;20894;-68
2021/11/14 05:02:54;;;;;;;71.17;46.20;;;;;;;5.17;97.79;100214.31;1768987;80;20949;-68
2021/11/14 05:05:21;;;;;;;65.87;42.58;;;;;;;5.21;97.83;100222.87;1747085;80;21491;-67
2021/11/14 05:07:48;;;;;;;67.17;44.40;;;;;;;5.20;97.69;100221.17;1745540;80;20899;-68
2021/11/14 05:10:16;;;;;;;64.95;43.28;;;;;;;5.20;97.63;100222.47;1753623;80;21081;-68
2021/11/14 05:12:43;;;;;;;62.83;41.58;;;;;;;5.21;97.68;100238.41;1750580;81;21613;-68
2021/11/14 05:15:10;;;;;;;70.00;44.45;;;;;;;5.24;97.76;100232.75;1750901;79;21476;-68
2021/11/14 05:17:39;;;;;;;62.20;43.40;;;;;;;5.29;97.78;100236.53;1718374;81;21803;-68
2021/11/14 05:20:07;;;;;;;67.03;44.25;;;;;;;5.30;97.73;100239.11;1740136;80;20914;-68
2021/11/14 05:22:34;;;;;;;66.07;44.18;;;;;;;5.31;97.68;100243.84;1714239;81;21618;-67
2021/11/14 05:25:01;;;;;;;64.62;43.13;;;;;;;5.32;97.65;100246.84;1758157;80;20942;-68
2021/11/14 05:27:28;;;;;;;72.53;45.37;;;;;;;5.32;97.60;100249.42;1761864;79;20942;-68
2021/11/14 05:29:55;;;;;;;63.80;41.23;;;;;;;5.32;97.60;100254.61;1742336;81;21296;-67
2021/11/14 05:32:22;;;;;;;65.72;43.10;;;;;;;5.32;97.51;100264.96;1739035;80;20981;-68
2021/11/14 05:34:49;;;;;;;62.70;42.38;;;;;;;5.29;97.45;100267.20;1742053;81;21513;-68
2021/11/14 05:37:16;;;;;;;63.85;42.60;;;;;;;5.29;97.50;100272.78;1759306;80;20887;-68
2021/11/14 05:39:45;;;;;;;66.57;44.33;;;;;;;5.29;97.47;100280.55;1733362;81;21547;-67
2021/11/14 05:42:12;;;;;;;64.55;42.98;;;;;;;5.30;97.49;100287.46;1731310;81;21662;-67
2021/11/14 05:44:39;;;;;;;62.80;41.97;;;;;;;5.30;97.44;100290.05;1737291;81;20976;-68
2021/11/14 05:47:06;;;;;;;57.00;39.27;;;;;;;5.32;97.48;100297.33;1733682;81;20945;-68
2021/11/14 05:49:34;;;;;;;62.10;40.90;;;;;;;5.29;97.28;100300.85;1727499;81;20921;-68
2021/11/14 05:52:00;;;;;;;58.13;39.92;;;;;;;5.30;97.37;100308.17;1764557;79;21025;-68
2021/11/14 05:54:27;;;;;;;63.80;42.83;;;;;;;5.31;97.44;100304.70;1748718;79;21106;-68
2021/11/14 05:56:54;;;;;;;58.05;40.23;;;;;;;5.34;97.43;100312.41;1749872;79;21038;-69
2021/11/14 05:59:51;;;;;;;62.20;40.33;;;;;;;5.34;97.36;100312.41;1756847;79;20910;-69
2021/11/14 06:02:12;;;;;;;60.58;40.50;;;;;;;5.36;97.33;100318.42;1735313;81;20941;-68
2021/11/14 06:07:12;;;;;;;59.10;41.15;;;;;;;5.37;97.35;100318.38;1762220;80;21005;-69
2021/11/14 06:09:39;;;;;;;60.45;41.53;;;;;;;5.41;97.40;100329.57;1751162;81;20906;-68
2021/11/14 06:12:07;;;;;;;63.13;42.33;;;;;;;5.42;97.37;100328.68;1756618;79;20956;-68
2021/11/14 06:14:35;;;;;;;59.03;41.00;;;;;;;5.43;97.32;100330.38;1768082;79;20978;-68
2021/11/14 06:17:02;;;;;;;;;;;;;;;5.42;97.27;100336.45;1757956;80;20934;-68
2021/11/14 06:19:28;;;;;;;57.25;39.13;;;;;;;5.42;97.25;100340.78;1775139;78;21038;-68
2021/11/14 06:21:55;;;;;;;63.47;42.30;;;;;;;5.41;97.26;100350.29;1773586;78;21571;-69
2021/11/14 06:24:22;;;;;;;62.03;41.67;;;;;;;5.40;97.29;100351.15;1774355;78;21127;-68
2021/11/14 06:26:48;;;;;;;59.63;39.10;;;;;;;5.41;97.26;100358.06;1774418;78;21032;-69
2021/11/14 06:29:15;;;;;;;59.33;39.92;;;;;;;5.38;97.06;100360.70;1773291;78;21482;-68
2021/11/14 06:31:42;;;;;;;66.40;39.27;;;;;;;5.38;97.17;100360.25;1772383;78;21030;-68
2021/11/14 06:34:09;;;;;;;56.80;38.33;;;;;;;5.39;97.17;100355.92;1774842;78;20874;-68
2021/11/14 06:36:35;;;;;;;55.28;36.58;;;;;;;5.40;97.06;100364.09;1774749;78;20947;-68
2021/11/14 06:39:04;;;;;;;52.00;35.37;;;;;;;5.39;97.00;100367.58;1770235;78;21565;-68
2021/11/14 06:41:31;;;;;;;53.70;36.40;;;;;;;5.39;96.97;100377.94;1782060;78;21593;-68
2021/11/14 06:43:58;;;;;;;54.65;36.08;;;;;;;5.40;96.97;100377.05;1776758;80;21863;-68
2021/11/14 06:46:24;;;;;;;51.70;34.50;;;;;;;5.42;96.99;100375.74;1756741;80;21264;-69
2021/11/14 06:48:51;;;;;;;50.70;35.07;;;;;;;5.43;96.98;100384.77;1776588;78;20937;-68
2021/11/14 06:51:18;;;;;;;56.20;35.37;;;;;;;5.48;97.01;100391.18;1758508;79;20953;-67
2021/11/14 06:53:44;;;;;;;57.50;33.30;;;;;;;5.48;96.96;100386.85;1757076;79;21509;-68
2021/11/14 06:56:11;;;;;;;52.35;35.20;;;;;;;5.52;96.96;100390.27;1754305;79;20994;-68
2021/11/14 06:58:38;;;;;;;48.33;33.98;;;;;;;5.54;96.94;100393.22;1761873;79;21448;-67
2021/11/14 07:01:05;;;;;;;50.12;34.90;;;;;;;5.56;96.89;100391.47;1758505;79;20941;-68
2021/11/14 07:03:31;;;;;;;47.13;34.20;;;;;;;5.57;96.84;100393.20;1766620;79;20945;-68
2021/11/14 07:05:58;;;;;;;50.88;34.65;;;;;;;5.58;96.83;100389.72;1758313;79;21030;-68
2021/11/14 07:08:25;;;;;;;48.45;33.50;;;;;;;5.59;96.73;100394.02;1757751;79;21858;-68
2021/11/14 07:10:52;;;;;;;49.03;32.73;;;;;;;5.60;96.72;100395.73;1771188;80;21440;-68
2021/11/14 07:13:19;;;;;;;47.85;34.05;;;;;;;5.63;96.69;100393.95;1768969;80;20962;-69
2021/11/14 07:15:46;;;;;;;50.40;34.87;;;;;;;5.66;96.67;100397.79;1758193;80;21448;-69
2021/11/14 07:18:12;;;;;;;52.30;33.80;;;;;;;5.68;96.63;100394.74;1773810;78;21673;-69
2021/11/14 07:20:40;;;;;;;44.13;31.97;;;;;;;5.69;96.61;100391.30;1772198;78;22157;-70
2021/11/14 07:23:10;;;;;;;50.50;30.27;;;;;;;5.71;96.61;100384.33;1771879;79;21476;-69
2021/11/14 07:25:37;;;;;;;46.88;33.23;;;;;;;5.71;96.47;100395.98;1779939;79;21642;-68
2021/11/14 07:28:04;;;;;;;49.15;32.28;;;;;;;5.71;96.49;100390.80;1772541;79;21060;-69
2021/11/14 07:30:33;;;;;;;46.10;30.90;;;;;;;5.70;96.44;100392.99;1773410;80;21540;-68
2021/11/14 07:33:00;;;;;;;52.73;32.80;;;;;;;5.69;96.39;100393.88;1771859;78;21187;-68
2021/11/14 07:35:28;;;;;;;45.50;30.92;;;;;;;5.72;96.44;100400.31;1775807;79;20882;-68
2021/11/14 07:37:55;;;;;;;44.00;30.30;;;;;;;5.71;96.35;100394.69;1707543;82;20954;-68
2021/11/14 07:40:24;;;;;;;46.33;29.77;;;;;;;5.73;96.35;100405.89;1762519;80;20978;-67
2021/11/14 07:42:53;;;;;;;39.67;28.35;;;;;;;5.72;96.24;100411.97;1774564;78;20895;-69
2021/11/14 07:45:23;;;;;;;43.30;29.90;;;;;;;5.74;96.20;100415.37;1771483;79;21108;-69
2021/11/14 07:47:52;;;;;;;43.98;28.60;;;;;;;5.74;96.13;100417.95;1774527;79;20927;-69
2021/11/14 07:50:23;;;;;;;43.15;29.35;;;;;;;5.74;96.10;100425.73;1770899;80;21437;-69
2021/11/14 07:52:50;;;;;;;42.20;29.37;;;;;;;5.76;96.08;100418.80;1769687;78;21057;-69
2021/11/14 07:55:17;;;;;;;37.85;26.37;;;;;;;5.76;95.89;100431.75;1716914;81;20879;-69
2021/11/14 07:57:44;;;;;;;39.70;26.85;;;;;;;5.74;95.71;100433.50;1732666;81;21081;-69
2021/11/14 08:00:16;;;;;;;39.00;26.33;;;;;;;5.72;95.65;100445.65;1732821;81;20956;-67
2021/11/14 08:02:44;;;;;;;35.38;26.23;;;;;;;5.68;95.59;100438.79;1718819;81;20965;-68
2021/11/14 08:05:14;;;;;;;38.58;26.73;;;;;;;5.66;95.63;100444.42;1726794;81;20918;-68
2021/11/14 08:07:42;;;;;;;38.85;27.42;;;;;;;5.64;95.29;100444.91;1742348;81;21018;-67
2021/11/14 08:10:24;;;;;;;36.05;25.77;;;;;;;5.63;95.31;100449.66;1752566;81;21036;-68
2021/11/14 08:12:52;;;;;;;36.77;26.05;;;;;;;5.63;95.40;100452.25;1739004;81;21457;-68
2021/11/14 08:15:21;;;;;;;36.93;26.15;;;;;;;5.61;95.31;100454.44;1748920;81;20959;-67
2021/11/14 08:17:48;;;;;;;36.48;25.43;;;;;;;5.60;95.29;100459.21;1716624;81;20886;-67
2021/11/14 08:20:16;;;;;;;40.05;25.97;;;;;;;5.59;95.18;100460.07;1743060;79;20922;-68
2021/11/14 08:22:43;;;;;;;38.35;25.50;;;;;;;5.58;94.97;100462.26;1744714;81;21072;-68
2021/11/14 08:25:15;;;;;;;37.70;25.82;;;;;;;5.59;95.04;100463.95;1755318;80;20923;-68
2021/11/14 08:27:43;;;;;;;36.77;25.70;;;;;;;5.60;95.17;100464.39;1752996;80;21041;-68
2021/11/14 08:30:14;;;;;;;36.77;25.10;;;;;;;5.61;95.05;100466.54;1747302;80;20914;-68
2021/11/14 08:32:41;;;;;;;34.10;24.63;;;;;;;5.61;94.33;100477.75;1740052;81;21446;-68
2021/11/14 08:35:10;;;;;;;;;;;;;;;5.60;94.74;100479.94;1744966;80;21028;-68
2021/11/14 08:37:57;;;;;;;35.17;26.07;;;;;;;5.61;94.62;100480.34;1715536;82;20123;-68
2021/11/14 08:40:16;;;;;;;39.67;25.00;;;;;;;5.61;94.57;100480.34;1730374;81;21594;-68
2021/11/14 08:42:47;;;;;;;42.73;24.57;;;;;;;5.60;94.16;100491.59;1711784;82;20985;-68
2021/11/14 08:45:14;;;;;;;33.33;24.72;;;;;;;5.60;94.41;100491.59;1745104;80;21050;-68
2021/11/14 08:47:41;;;;;;;41.33;25.72;;;;;;;5.62;94.50;100495.44;1711844;82;21057;-69
2021/11/14 08:50:11;;;;;;;38.58;24.87;;;;;;;5.63;94.28;100501.47;1740766;81;21005;-68
2021/11/14 08:52:44;;;;;;;34.48;23.65;;;;;;;5.64;94.31;100499.32;1731414;81;20890;-68
2021/11/14 08:55:07;;;;;;;31.97;22.77;;;;;;;5.69;94.47;100500.11;1753843;80;20983;-67
2021/11/14 08:57:34;;;;;;;;;;;;;;;5.72;94.18;100503.95;1743129;80;21116;-68
2021/11/14 09:00:01;;;;;;;37.95;24.35;;;;;;;5.74;94.22;100507.35;1748748;80;21031;-68
2021/11/14 09:02:28;;;;;;;34.18;23.32;;;;;;;5.75;94.22;100505.20;1705409;82;20982;-68
2021/11/14 09:04:55;;;;;;;34.13;22.45;;;;;;;5.76;94.27;100505.16;1728314;80;20935;-69
2021/11/14 09:07:22;;;;;;;29.60;22.40;;;;;;;5.80;94.21;100513.77;1749668;80;20954;-68
2021/11/14 09:09:49;;;;;;;;;;;;;;;5.79;94.07;100508.15;1741338;80;21021;-68
2021/11/14 09:12:17;;;;;;;33.48;22.50;;;;;;;5.77;93.61;100512.48;1724393;80;20766;-68
2021/11/14 09:14:49;;;;;;;32.33;23.75;;;;;;;5.77;93.61;100518.97;1726860;81;21023;-67
2021/11/14 09:17:17;;;;;;;32.80;22.60;;;;;;;5.77;93.84;100529.33;1744195;80;21035;-68
2021/11/14 09:19:47;;;;;;;30.62;21.52;;;;;;;5.77;93.85;100524.15;1734297;80;20886;-68
2021/11/14 09:22:14;;;;;;;36.53;23.07;;;;;;;5.79;93.82;100534.06;1746193;80;21010;-68
2021/11/14 09:24:40;;;;;;;32.55;21.57;;;;;;;5.79;93.33;100534.06;1746072;81;26603;-68
2021/11/14 09:27:08;;;;;;;30.87;21.43;;;;;;;5.79;93.15;100532.77;1748984;80;20991;-68
2021/11/14 09:29:35;;;;;;;35.10;21.90;;;;;;;5.79;93.45;100541.39;1743666;80;20956;-68
2021/11/14 09:32:02;;;;;;;28.15;20.62;;;;;;;5.80;93.30;100539.69;1751005;80;21445;-68
2021/11/14 09:34:29;;;;;;;34.15;21.15;;;;;;;5.82;93.37;100540.49;1734016;81;20946;-68
2021/11/14 09:36:58;;;;;;;28.50;21.23;;;;;;;5.85;93.24;100544.33;1742590;80;21120;-68
2021/11/14 09:39:24;;;;;;;27.93;19.42;;;;;;;5.86;93.28;100538.73;1746784;80;20985;-69
2021/11/14 09:41:52;;;;;;;28.90;19.17;;;;;;;5.89;93.30;100558.13;1740272;81;20886;-68
2021/11/14 09:44:20;;;;;;;31.87;22.50;;;;;;;5.90;93.26;100561.97;1745489;80;20922;-69
2021/11/14 09:46:55;;;;;;;33.08;21.12;;;;;;;5.90;93.20;100559.37;1741451;81;44064;-68
2021/11/14 09:49:26;;;;;;;29.82;20.80;;;;;;;5.90;93.02;100559.37;1741405;81;21095;-68
2021/11/14 09:51:56;;;;;;;32.38;21.37;;;;;;;5.91;93.14;100555.05;1750327;80;20946;-69
2021/11/14 09:54:25;;;;;;;32.50;21.87;;;;;;;5.91;92.77;100566.30;1737192;80;20924;-68
2021/11/14 09:56:55;;;;;;;33.40;21.15;;;;;;;5.90;92.91;100561.97;1742292;80;20946;-68
2021/11/14 09:59:25;;;;;;;31.97;21.82;;;;;;;5.94;93.04;100570.62;1743230;81;21034;-68
2021/11/14 10:01:55;;;;;;;30.17;21.48;;;;;;;5.97;92.79;100574.02;1748622;80;21041;-68
2021/11/14 10:04:22;;;;;;;31.77;21.48;;;;;;;5.97;92.75;100572.72;1745664;80;20886;-68
2021/11/14 10:07:03;;;;;;;28.67;20.52;;;;;;;5.96;92.54;100580.05;1751700;80;21000;-69
2021/11/14 10:09:50;;;;;;;30.15;20.85;;;;;;;5.96;92.71;100581.80;1758885;79;20972;-67
2021/11/14 10:12:23;;;;;;;29.35;21.00;;;;;;;5.96;92.53;100582.64;1779744;78;20902;-68
2021/11/14 10:15:10;;;;;;;35.43;21.80;;;;;;;5.93;92.51;100577.51;1773655;80;21150;-67
2021/11/14 10:17:39;;;;;;;32.55;20.68;;;;;;;5.96;92.64;100582.64;1748427;80;21279;-67
2021/11/14 10:20:11;;;;;;;30.43;20.68;;;;;;;5.96;92.53;100593.02;1782022;79;21109;-67
2021/11/14 10:22:42;;;;;;;29.60;20.45;;;;;;;5.97;92.41;100597.34;1780452;78;20918;-67
2021/11/14 10:25:11;;;;;;;28.57;19.77;;;;;;;5.96;92.45;100585.23;1781937;79;20953;-68
2021/11/14 10:27:39;;;;;;;30.32;20.27;;;;;;;5.95;92.14;100596.50;1764498;79;21029;-69
2021/11/14 10:30:10;;;;;;;32.88;21.68;;;;;;;5.93;92.17;100598.25;1779119;79;20878;-68
2021/11/14 10:32:38;;;;;;;30.55;20.40;;;;;;;5.91;92.21;100602.59;1782212;78;21076;-69
2021/11/14 10:35:06;;;;;;;28.77;20.32;;;;;;;5.91;92.45;100599.99;1737011;79;21095;-68
2021/11/14 10:37:44;;;;;;;33.83;20.95;;;;;;;5.91;92.45;100599.99;1765428;79;21028;-68
2021/11/14 10:40:22;;;;;;;30.30;20.75;;;;;;;5.92;92.27;100600.41;1741700;81;20968;-69
2021/11/14 10:42:57;;;;;;;31.90;20.35;;;;;;;5.93;92.33;100596.95;1779087;79;20939;-69
2021/11/14 10:45:29;;;;;;;30.08;19.70;;;;;;;5.95;92.32;100601.69;1782641;78;21456;-67
2021/11/14 10:48:03;;;;;;;31.73;20.20;;;;;;;5.94;91.82;100604.31;1724339;81;20965;-67
2021/11/14 10:50:38;;;;;;;26.68;19.07;;;;;;;5.94;91.94;100605.61;1780354;80;20974;-68
2021/11/14 10:53:08;;;;;;;32.28;20.10;;;;;;;5.95;91.82;100598.23;1772615;79;21144;-67
2021/11/14 10:55:50;;;;;;;28.30;19.25;;;;;;;5.97;92.02;100605.12;1774679;80;21005;-69
2021/11/14 10:58:17;;;;;;;28.87;19.23;;;;;;;6.01;92.05;100602.88;1756934;79;20937;-68
2021/11/14 11:00:48;;;;;;;29.67;20.05;;;;;;;6.04;91.86;100604.13;1759541;79;28036;-68
2021/11/14 11:03:16;;;;;;;31.10;19.75;;;;;;;6.09;91.94;100609.71;1776886;78;20910;-68
2021/11/14 11:05:43;;;;;;;26.55;18.30;;;;;;;6.12;91.89;100610.95;1773825;78;21036;-69
2021/11/14 11:08:20;;;;;;;30.27;20.32;;;;;;;6.13;91.60;100610.06;1777778;78;20917;-69
2021/11/14 11:10:52;;;;;;;33.00;20.70;;;;;;;6.18;91.81;100616.05;1757180;79;20890;-69
2021/11/14 11:13:36;;;;;;;33.20;20.70;;;;;;;6.22;91.11;100615.14;1771285;78;21099;-68
2021/11/14 11:16:14;;;;;;;26.75;18.70;;;;;;;6.20;91.26;100615.59;1737205;81;20977;-68
2021/11/14 11:18:44;;;;;;;28.25;19.17;;;;;;;6.24;91.32;100621.14;1771797;80;21026;-67
2021/11/14 11:21:14;;;;;;;29.07;20.30;;;;;;;6.24;90.96;100621.14;1736692;81;20982;-67
2021/11/14 11:23:48;;;;;;;35.00;21.02;;;;;;;6.22;91.04;100621.62;1748802;79;21063;-68
2021/11/14 11:26:21;;;;;;;29.10;18.87;;;;;;;6.21;91.25;100627.67;1778206;79;20905;-69
2021/11/14 11:28:48;;;;;;;31.20;20.52;;;;;;;6.20;90.42;100624.22;1772087;79;21037;-70